createdAt,value
2023-04-29T00:00:15.906Z,100719.69
2023-04-29T00:02:45.442Z,100722.94
2023-04-29T00:05:13.970Z,100725.31
2023-04-29T00:07:43.491Z,100722.94
2023-04-29T00:10:14.762Z,100716.13
2023-04-29T00:12:42.889Z,100728.53
2023-04-29T00:15:11.400Z,100729.34
2023-04-29T00:17:41.467Z,100721.31
2023-04-29T00:20:12.685Z,100715.72
2023-04-29T00:22:41.082Z,100705.69
2023-04-29T00:25:09.921Z,100719.69
2023-04-29T00:27:38.433Z,100721.31
2023-04-29T00:30:11.713Z,100722.50
2023-04-29T00:32:44.272Z,100730.91
2023-04-29T00:38:39.554Z,100716.13
2023-04-29T00:41:08.517Z,100714.53
2023-04-29T00:43:37.947Z,100717.31
2023-04-29T00:46:27.368Z,100710.09
2023-04-29T00:49:05.546Z,100708.50
2023-04-29T00:51:42.216Z,100708.50
2023-04-29T00:54:10.694Z,100710.09
2023-04-29T00:56:39.009Z,100708.91
2023-04-29T00:59:15.548Z,100702.88
2023-04-29T01:48:50.444Z,100702.09
2023-04-29T01:51:18.820Z,100704.50
2023-04-29T01:53:47.017Z,100703.31
2023-04-29T01:56:17.200Z,100706.13
2023-04-29T01:58:51.234Z,100698.91
2023-04-29T02:46:40.620Z,100683.69
2023-04-29T02:49:23.607Z,100685.31
2023-04-29T02:52:23.321Z,100688.13
2023-04-29T02:55:10.613Z,100689.31
2023-04-29T02:57:44.920Z,100687.69
2023-04-29T03:47:08.651Z,100679.72
2023-04-29T03:49:44.936Z,100669.69
2023-04-29T03:52:19.992Z,100678.09
2023-04-29T03:55:06.268Z,100670.88
2023-04-29T03:58:05.545Z,100672.88
2023-04-29T04:49:00.067Z,100691.75
2023-04-29T04:51:30.385Z,100696.97
2023-04-29T04:53:59.374Z,100706.19
2023-04-29T04:56:30.915Z,100705.00
2023-04-29T04:59:02.571Z,100698.59
2023-04-29T05:01:33.249Z,100707.00
2023-04-29T05:04:07.750Z,100703.81
2023-04-29T05:06:40.728Z,100701.41
2023-04-29T05:09:09.218Z,100702.59
2023-04-29T05:11:38.171Z,100703.00
2023-04-29T05:14:12.007Z,100712.59
2023-04-29T05:16:40.918Z,100708.19
2023-04-29T05:19:11.211Z,100712.59
2023-04-29T05:21:42.924Z,100712.59
2023-04-29T05:24:26.252Z,100713.41
2023-04-29T05:27:01.019Z,100715.41
2023-04-29T05:29:32.372Z,100714.22
2023-04-29T05:32:03.721Z,100712.59
2023-04-29T05:34:33.935Z,100712.59
2023-04-29T05:40:56.744Z,100719.81
2023-04-29T05:43:54.086Z,100721.81
2023-04-29T05:46:23.314Z,100729.41
2023-04-29T05:48:52.408Z,100724.25
2023-04-29T05:51:22.794Z,100730.31
2023-04-29T05:53:51.396Z,100726.31
2023-04-29T05:56:22.630Z,100729.13
2023-04-29T05:58:53.159Z,100726.31
2023-04-29T06:01:25.213Z,100733.53
2023-04-29T06:03:53.779Z,100734.72
2023-04-29T06:06:46.225Z,100740.75
2023-04-29T06:09:39.823Z,100736.78
2023-04-29T06:12:24.454Z,100744.81
2023-04-29T06:14:54.959Z,100749.63
2023-04-29T06:17:29.992Z,100751.22
2023-04-29T06:19:59.867Z,100747.63
2023-04-29T06:22:29.939Z,100755.22
2023-04-29T06:24:58.432Z,100753.22
2023-04-29T06:27:35.408Z,100755.22
2023-04-29T06:30:03.904Z,100762.44
2023-04-29T06:32:32.064Z,100764.06
2023-04-29T06:35:00.290Z,100772.91
2023-04-29T06:37:52.985Z,100774.16
2023-04-29T06:44:04.745Z,100792.97
2023-04-29T06:46:43.309Z,100788.19
2023-04-29T06:49:51.557Z,100798.59
2023-04-29T06:52:23.880Z,100798.59
2023-04-29T06:55:03.205Z,100796.97
2023-04-29T06:57:36.668Z,100801.75
2023-04-29T07:00:09.159Z,100804.19
2023-04-29T07:02:54.456Z,100814.63
2023-04-29T07:05:28.561Z,100810.22
2023-04-29T07:08:10.931Z,100818.63
2023-04-29T07:10:56.237Z,100821.00
2023-04-29T07:13:33.827Z,100818.19
2023-04-29T07:16:12.235Z,100825.00
2023-04-29T07:18:53.006Z,100833.03
2023-04-29T07:22:00.283Z,100827.81
2023-04-29T07:24:42.932Z,100840.25
2023-04-29T07:27:18.341Z,100845.13
2023-04-29T07:29:55.296Z,100845.47
2023-04-29T07:32:36.736Z,100851.47
2023-04-29T07:35:34.148Z,100854.25
2023-04-29T07:38:15.363Z,100863.47
2023-04-29T07:40:57.175Z,100863.88
2023-04-29T07:46:56.720Z,100877.06
2023-04-29T07:50:37.699Z,100877.88
2023-04-29T07:54:33.686Z,100891.50
2023-04-29T07:56:23.513Z,100895.50
2023-04-29T07:59:40.503Z,100894.31
2023-04-29T08:02:28.995Z,100908.34
2023-04-29T08:05:29.132Z,100905.09
2023-04-29T08:08:07.742Z,100915.13
2023-04-29T08:10:51.431Z,100921.91
2023-04-29T08:37:11.018Z,100960.41
2023-04-29T08:39:47.212Z,100960.41
2023-04-29T08:42:16.326Z,100967.66
2023-04-29T08:44:48.465Z,100973.28
2023-04-29T08:47:26.267Z,100981.69
2023-04-29T08:50:07.231Z,100990.09
2023-04-29T08:52:52.297Z,101000.47
2023-04-29T08:55:24.773Z,100997.22
2023-04-29T08:58:01.877Z,101007.25
2023-04-29T09:00:30.677Z,101014.06
2023-04-29T09:03:09.788Z,101017.66
2023-04-29T09:05:59.357Z,101019.75
2023-04-29T09:09:01.254Z,101029.78
2023-04-29T09:12:02.327Z,101025.34
2023-04-29T09:15:55.526Z,101035.75
2023-04-29T09:18:55.855Z,101038.56
2023-04-29T09:21:45.171Z,101040.56
2023-04-29T09:28:24.265Z,101062.97
2023-04-29T09:31:29.695Z,101057.38
2023-04-29T09:37:55.325Z,101067.84
2023-04-29T09:41:15.054Z,101070.22
2023-04-29T09:44:32.857Z,101079.81
2023-04-29T09:47:57.265Z,101079.81
2023-04-29T09:54:29.779Z,101094.97
2023-04-29T09:57:12.336Z,101093.81
2023-04-29T10:00:20.303Z,101101.06
2023-04-29T10:03:13.287Z,101107.84
2023-04-29T10:05:53.288Z,101114.59
2023-04-29T10:08:28.529Z,101117.41
2023-04-29T10:11:10.030Z,101112.59
2023-04-29T10:14:03.087Z,101119.06
2023-04-29T10:16:41.581Z,101130.28
2023-04-29T10:19:13.078Z,101128.63
2023-04-29T10:21:44.763Z,101135.03
2023-04-29T10:24:15.170Z,101131.91
2023-04-29T10:27:08.817Z,101138.69
2023-04-29T10:29:50.067Z,101141.47
2023-04-29T10:32:22.122Z,101149.91
2023-04-29T10:34:56.478Z,101150.25
2023-04-29T10:37:36.423Z,101157.84
2023-04-29T10:40:10.785Z,101160.63
2023-04-29T10:42:42.924Z,101159.03
2023-04-29T10:45:26.909Z,101161.00
2023-04-29T10:48:23.362Z,101159.81
2023-04-29T10:51:09.184Z,101167.44
2023-04-29T10:54:08.862Z,101170.66
2023-04-29T10:56:40.118Z,101161.44
2023-04-29T11:03:31.998Z,101171.84
2023-04-29T11:07:09.355Z,101175.84
2023-04-29T11:09:50.783Z,101183.06
2023-04-29T11:12:32.944Z,101183.06
2023-04-29T11:15:08.912Z,101183.88
2023-04-29T11:17:52.300Z,101191.94
2023-04-29T11:20:25.830Z,101184.69
2023-04-29T11:23:09.850Z,101189.50
2023-04-29T11:26:00.497Z,101188.69
2023-04-29T11:28:30.581Z,101194.28
2023-04-29T11:31:04.387Z,101198.28
2023-04-29T11:33:35.283Z,101205.50
2023-04-29T11:36:11.978Z,101196.66
2023-04-29T11:39:03.061Z,101208.31
2023-04-29T11:41:47.285Z,101200.34
2023-04-29T11:55:47.629Z,101220.81
2023-04-29T12:02:15.920Z,101235.63
2023-04-29T12:08:48.316Z,101242.50
2023-04-29T12:11:21.905Z,101248.91
2023-04-29T12:13:58.634Z,101246.09
2023-04-29T12:16:54.962Z,101246.47
2023-04-29T12:20:21.596Z,101256.88
2023-04-29T12:23:03.132Z,101256.88
2023-04-29T12:25:36.075Z,101256.06
2023-04-29T12:28:13.047Z,101253.25
2023-04-29T12:30:46.451Z,101253.69
2023-04-29T13:29:23.967Z,101274.63
2023-04-29T13:32:43.203Z,101286.66
2023-04-29T13:37:34.464Z,101287.44
2023-04-29T14:48:35.165Z,101330.69
2023-04-29T14:54:17.113Z,101336.19
2023-04-29T14:56:54.061Z,101337.06
2023-04-29T14:59:44.554Z,101337.28
2023-04-29T15:02:12.699Z,101334.84
2023-04-29T15:04:45.649Z,101336.84
2023-04-29T15:07:13.691Z,101340.34
2023-04-29T15:09:41.882Z,101335.53
2023-04-29T15:12:14.606Z,101339.06
2023-04-29T15:14:42.772Z,101326.13
2023-04-29T15:17:13.757Z,101326.00
2023-04-29T15:19:45.848Z,101335.47
2023-04-29T15:22:14.168Z,101339.38
2023-04-29T15:27:19.149Z,101337.50
2023-04-29T15:29:47.302Z,101336.81
2023-04-29T15:32:17.454Z,101338.31
2023-04-29T15:34:47.069Z,101338.31
2023-04-29T15:37:15.276Z,101339.84
2023-04-29T15:39:43.294Z,101340.31
2023-04-29T15:42:12.907Z,101343.09
2023-04-29T15:44:40.824Z,101339.84
2023-04-29T15:47:08.877Z,101345.78
2023-04-29T15:49:38.351Z,101355.00
2023-04-29T15:52:07.693Z,101353.38
2023-04-29T15:54:35.797Z,101358.53
2023-04-29T15:57:06.580Z,101368.56
2023-04-29T15:59:34.586Z,101366.13
2023-04-29T16:02:04.604Z,101374.88
2023-04-29T16:04:37.902Z,101376.50
2023-04-29T16:07:07.360Z,101376.50
2023-04-29T16:09:35.327Z,101374.50
2023-04-29T16:12:03.354Z,101383.38
2023-04-29T16:14:31.399Z,101379.75
2023-04-29T16:16:59.678Z,101376.50
2023-04-29T16:19:27.838Z,101378.00
2023-04-29T16:21:56.014Z,101379.53
2023-04-29T16:24:25.469Z,101380.00
2023-04-29T16:26:53.692Z,101390.03
2023-04-29T16:29:21.672Z,101382.78
2023-04-29T16:31:49.718Z,101379.53
2023-04-29T16:34:19.074Z,101389.13
2023-04-29T16:36:46.939Z,101394.72
2023-04-29T16:39:15.050Z,101386.66
2023-04-29T16:41:44.510Z,101387.00
2023-04-29T16:44:13.012Z,101388.16
2023-04-29T16:46:41.021Z,101385.16
2023-04-29T16:49:09.064Z,101390.75
2023-04-29T16:55:22.931Z,101392.59
2023-04-29T16:57:52.361Z,101402.63
2023-04-29T17:05:05.177Z,101402.38
2023-04-29T17:07:33.187Z,101421.53
2023-04-29T17:10:01.862Z,101412.66
2023-04-29T17:12:29.646Z,101412.66
2023-04-29T17:14:58.901Z,101417.78
2023-04-29T17:17:26.920Z,101422.44
2023-04-29T17:19:55.796Z,101424.56
2023-04-29T17:22:24.082Z,101425.72
2023-04-29T17:25:47.647Z,101436.69
2023-04-29T17:28:15.967Z,101438.88
2023-04-29T17:30:47.761Z,101442.97
2023-04-29T17:33:21.020Z,101428.50
2023-04-29T17:35:49.285Z,101451.16
2023-04-29T17:38:19.845Z,101446.00
2023-04-29T17:40:48.122Z,101446.44
2023-04-29T17:43:18.546Z,101450.44
2023-04-29T17:45:54.655Z,101448.34
2023-04-29T17:51:47.671Z,101460.28
2023-04-29T17:54:15.611Z,101464.94
2023-04-29T17:56:48.156Z,101463.03
2023-04-29T17:59:16.594Z,101462.09
2023-04-29T18:08:40.450Z,101476.88
2023-04-29T18:11:53.197Z,101471.94
2023-04-29T18:14:53.094Z,101480.47
2023-04-29T18:37:53.952Z,101502.50
2023-04-29T18:40:49.175Z,101504.16
2023-04-29T18:43:52.614Z,101504.97
2023-04-29T18:48:09.200Z,101514.19
2023-04-29T18:54:51.337Z,101524.69
2023-04-29T18:57:54.465Z,101533.56
2023-04-29T19:00:34.195Z,101540.00
2023-04-29T19:03:05.271Z,101541.97
2023-04-29T19:05:38.472Z,101545.97
2023-04-29T19:08:16.527Z,101546.78
2023-04-29T19:11:31.692Z,101551.56
2023-04-29T19:14:29.258Z,101553.53
2023-04-29T19:16:57.362Z,101561.94
2023-04-29T19:19:25.583Z,101566.03
2023-04-29T19:22:12.357Z,101564.84
2023-04-29T19:24:43.507Z,101562.06
2023-04-29T19:27:14.878Z,101571.63
2023-04-29T19:29:54.495Z,101577.25
2023-04-29T19:32:33.971Z,101577.25
2023-04-29T19:35:09.594Z,101577.25
2023-04-29T19:37:43.852Z,101587.28
2023-04-29T19:40:12.367Z,101589.28
2023-04-29T19:42:43.024Z,101578.88
2023-04-29T19:45:18.760Z,101592.53
2023-04-29T19:47:56.959Z,101587.75
2023-04-29T19:50:42.095Z,101582.13
2023-04-29T19:53:27.177Z,101586.59
2023-04-29T19:56:32.704Z,101593.34
2023-04-29T19:59:18.033Z,101593.34
2023-04-29T20:02:40.219Z,101595.34
2023-04-29T20:08:01.976Z,101597.81
2023-04-29T20:10:48.472Z,101602.25
2023-04-29T20:13:29.691Z,101598.25
2023-04-29T20:16:09.045Z,101600.59
2023-04-29T20:18:39.349Z,101607.84
2023-04-29T20:21:22.725Z,101617.44
2023-04-29T20:23:51.113Z,101610.66
2023-04-29T20:26:19.874Z,101612.97
2023-04-29T20:29:05.487Z,101617.44
2023-04-29T20:31:40.018Z,101616.63
2023-04-29T20:34:08.252Z,101617.44
2023-04-29T20:36:38.011Z,101630.28
2023-04-29T20:39:07.071Z,101631.91
2023-04-29T20:41:36.815Z,101624.66
2023-04-29T20:44:09.468Z,101635.06
2023-04-29T20:46:39.873Z,101632.25
2023-04-29T20:49:08.675Z,101639.03
2023-04-29T20:51:40.316Z,101631.44
2023-04-29T20:54:16.443Z,101639.84
2023-04-29T20:56:44.724Z,101639.84
2023-04-29T20:59:32.525Z,101643.13
2023-04-29T21:02:11.502Z,101645.56
2023-04-29T21:04:39.634Z,101651.97
2023-04-29T21:07:12.743Z,101654.31
2023-04-29T21:09:41.486Z,101656.75
2023-04-29T21:12:12.476Z,101652.69
2023-04-29T21:14:42.153Z,101655.94
2023-04-29T21:17:12.255Z,101661.56
2023-04-29T21:19:42.352Z,101667.97
2023-04-29T21:22:16.377Z,101666.00
2023-04-29T21:24:56.170Z,101663.19
2023-04-29T21:27:24.629Z,101676.06
2023-04-29T21:29:54.973Z,101677.69
2023-04-29T21:32:23.653Z,101682.50
2023-04-29T21:34:53.570Z,101687.28
2023-04-29T21:37:23.791Z,101678.03
2023-04-29T21:39:57.640Z,101674.41
2023-04-29T21:42:29.994Z,101680.00
2023-04-29T21:45:00.307Z,101680.00
2023-04-29T21:47:28.434Z,101679.19
2023-04-29T21:49:58.893Z,101692.88
2023-04-29T21:52:31.073Z,101700.13
2023-04-29T21:55:00.763Z,101694.50
2023-04-29T21:57:42.826Z,101697.31
2023-04-29T22:00:28.144Z,101699.31
2023-04-29T22:02:56.560Z,101704.09
2023-04-29T22:05:25.930Z,101714.47
2023-04-29T22:08:00.152Z,101712.50
2023-04-29T22:10:35.835Z,101712.84
2023-04-29T22:13:05.551Z,101712.00
2023-04-29T22:15:33.937Z,101722.06
2023-04-29T22:18:45.100Z,101728.47
2023-04-29T22:21:55.089Z,101731.28
2023-04-29T22:24:40.335Z,101738.06
2023-04-29T22:27:35.517Z,101738.41
2023-04-29T22:30:33.612Z,101748.81
2023-04-29T22:34:00.168Z,101748.00
2023-04-29T22:36:49.950Z,101755.59
2023-04-29T22:39:50.393Z,101766.44
2023-04-29T22:42:41.706Z,101766.44
2023-04-29T22:48:41.034Z,101772.88
2023-04-29T22:51:35.552Z,101778.84
2023-04-29T22:54:37.696Z,101775.53
2023-04-29T22:57:29.010Z,101778.69
2023-04-29T23:00:20.923Z,101782.31
2023-04-29T23:03:09.647Z,101779.88
2023-04-29T23:09:11.930Z,101779.50
2023-04-29T23:12:18.775Z,101782.31
2023-04-29T23:15:00.147Z,101786.28
2023-04-29T23:17:41.950Z,101783.03
2023-04-29T23:20:20.296Z,101789.44
2023-04-29T23:22:57.429Z,101788.63
2023-04-29T23:25:40.915Z,101794.56
2023-04-29T23:28:19.548Z,101799.84
